createdAt,value
2018-12-21T00:00:10.434Z,61.3
2018-12-21T00:01:00.763Z,61.3
2018-12-21T00:32:32.585Z,61
2018-12-21T00:33:23.519Z,61
2018-12-21T00:34:12.972Z,61
2018-12-21T00:35:03.042Z,61
2018-12-21T00:35:52.817Z,60.9
2018-12-21T00:36:42.381Z,60.9
2018-12-21T00:37:33.289Z,60.9
2018-12-21T00:38:22.969Z,60.9
2018-12-21T00:39:13.622Z,60.9
2018-12-21T00:40:03.347Z,60.9
2018-12-21T00:40:53.689Z,60.9
2018-12-21T00:41:43.191Z,60.9
2018-12-21T00:42:33.534Z,60.9
2018-12-21T00:43:23.914Z,60.9
2018-12-21T00:44:13.634Z,60.9
2018-12-21T00:45:03.404Z,60.9
2018-12-21T00:45:53.739Z,60.9
2018-12-21T00:46:43.527Z,60.9
2018-12-21T00:47:33.881Z,60.9
2018-12-21T00:48:24.561Z,60.9
2018-12-21T00:49:13.689Z,60.8
2018-12-21T00:50:04.046Z,60.8
2018-12-21T00:50:54.359Z,60.8
2018-12-21T00:51:43.851Z,60.8
2018-12-21T00:52:34.470Z,60.8
2018-12-21T00:53:24.621Z,60.8
2018-12-21T00:54:13.756Z,60.8
2018-12-21T00:55:04.388Z,60.8
2018-12-21T00:55:53.318Z,60.8
2018-12-21T00:56:44.208Z,60.8
2018-12-21T00:57:34.823Z,60.8
2018-12-21T00:58:25.176Z,60.8
2018-12-21T00:59:14.933Z,60.8
2018-12-21T01:00:04.180Z,60.8
2018-12-21T01:00:55.045Z,60.7
2018-12-21T01:01:45.095Z,60.7
2018-12-21T01:02:34.873Z,60.7
2018-12-21T01:03:25.258Z,60.7
2018-12-21T01:04:14.978Z,60.7
2018-12-21T01:05:04.810Z,60.7
2018-12-21T01:05:54.575Z,60.7
2018-12-21T01:06:44.875Z,60.6
2018-12-21T01:07:35.235Z,60.6
2018-12-21T01:08:25.633Z,60.6
2018-12-21T01:09:15.330Z,60.6
2018-12-21T01:10:06.005Z,60.6
2018-12-21T01:10:55.450Z,60.6
2018-12-21T01:11:45.242Z,60.6
2018-12-21T01:12:35.372Z,60.6
2018-12-21T01:13:25.905Z,60.6
2018-12-21T01:14:15.492Z,60.6
2018-12-21T01:15:05.198Z,60.6
2018-12-21T01:15:55.026Z,60.6
2018-12-21T01:16:45.377Z,60.6
2018-12-21T01:17:35.709Z,60.6
2018-12-21T01:18:25.576Z,60.6
2018-12-21T01:19:15.647Z,60.6
2018-12-21T01:20:05.346Z,60.5
2018-12-21T01:20:55.362Z,60.5
2018-12-21T01:21:45.702Z,60.5
2018-12-21T01:22:36.039Z,60.5
2018-12-21T01:23:26.107Z,60.5
2018-12-21T01:24:15.603Z,60.5
2018-12-21T01:25:05.359Z,60.5
2018-12-21T01:25:56.754Z,60.5
2018-12-21T01:26:46.316Z,60.4
2018-12-21T01:27:36.318Z,60.4
2018-12-21T01:28:26.894Z,60.4
2018-12-21T01:29:16.115Z,60.4
2018-12-21T01:30:07.064Z,60.4
2018-12-21T01:30:57.091Z,60.4
2018-12-21T01:31:47.177Z,60.4
2018-12-21T01:32:36.381Z,60.4
2018-12-21T01:33:26.708Z,60.4
2018-12-21T01:34:17.331Z,60.4
2018-12-21T01:35:07.371Z,60.4
2018-12-21T01:35:57.150Z,60.4
2018-12-21T01:36:47.490Z,60.4
2018-12-21T01:37:37.376Z,60.3
2018-12-21T01:38:27.038Z,60.3
2018-12-21T01:39:17.673Z,60.4
2018-12-21T01:40:07.458Z,60.3
2018-12-21T01:40:57.209Z,60.3
2018-12-21T01:41:47.548Z,60.3
2018-12-21T01:42:37.622Z,60.3
2018-12-21T01:43:27.665Z,60.3
2018-12-21T01:44:17.704Z,60.3
2018-12-21T01:45:08.308Z,60.3
2018-12-21T01:45:57.848Z,60.3
2018-12-21T01:46:47.333Z,60.3
2018-12-21T01:47:37.973Z,60.3
2018-12-21T01:48:27.743Z,60.3
2018-12-21T01:49:18.060Z,60.3
2018-12-21T01:50:08.447Z,60.2
2018-12-21T01:50:58.463Z,60.2
2018-12-21T01:51:50.440Z,60.2
2018-12-21T01:52:38.285Z,60.2
2018-12-21T01:53:28.332Z,60.2
2018-12-21T01:54:19.044Z,60.2
2018-12-21T01:55:08.545Z,60.2
2018-12-21T01:55:58.512Z,60.2
2018-12-21T01:56:48.842Z,60.1
2018-12-21T01:57:38.999Z,60.2
2018-12-21T01:58:28.690Z,60.1
2018-12-21T01:59:19.023Z,60.1
2018-12-21T02:00:09.217Z,60.1
2018-12-21T02:00:59.150Z,60.1
2018-12-21T02:01:48.727Z,60.1
2018-12-21T02:02:38.965Z,60.1
2018-12-21T02:03:28.463Z,60.1
2018-12-21T02:04:19.400Z,60.1
2018-12-21T02:05:09.679Z,60.1
2018-12-21T02:05:59.173Z,60.1
2018-12-21T02:06:49.297Z,60.1
2018-12-21T02:07:39.314Z,60.1
2018-12-21T02:08:29.642Z,60.1
2018-12-21T02:09:19.150Z,60.1
2018-12-21T02:10:09.757Z,60
2018-12-21T02:10:59.598Z,60
2018-12-21T02:11:49.598Z,60
2018-12-21T02:12:39.379Z,60
2018-12-21T02:13:29.732Z,60
2018-12-21T02:14:19.757Z,60
2018-12-21T02:15:09.277Z,60
2018-12-21T02:16:00.135Z,60
2018-12-21T02:16:49.669Z,59.9
2018-12-21T02:17:39.707Z,59.9
2018-12-21T02:18:29.772Z,59.9
2018-12-21T02:19:20.102Z,59.9
2018-12-21T02:20:09.882Z,59.9
2018-12-21T02:21:00.759Z,59.9
2018-12-21T02:21:59.169Z,59.9
2018-12-21T02:22:40.334Z,59.9
2018-12-21T02:23:30.406Z,59.9
2018-12-21T02:24:20.726Z,59.9
2018-12-21T02:25:10.209Z,59.9
2018-12-21T02:26:00.304Z,59.9
2018-12-21T02:26:50.946Z,59.9
2018-12-21T02:27:40.960Z,59.9
2018-12-21T02:28:30.994Z,59.8
2018-12-21T02:29:20.842Z,59.8
2018-12-21T02:30:11.261Z,59.8
2018-12-21T02:31:01.192Z,59.8
2018-12-21T02:31:51.110Z,59.8
2018-12-21T02:32:40.214Z,59.8
2018-12-21T02:33:31.244Z,59.8
2018-12-21T02:34:20.879Z,59.8
2018-12-21T02:35:11.178Z,59.8
2018-12-21T02:36:01.276Z,59.8
2018-12-21T02:36:51.353Z,59.8
2018-12-21T02:37:41.348Z,59.8
2018-12-21T02:38:31.708Z,59.8
2018-12-21T02:39:22.124Z,59.8
2018-12-21T02:40:11.256Z,59.7
2018-12-21T02:41:01.926Z,59.7
2018-12-21T02:41:52.176Z,59.7
2018-12-21T02:42:41.443Z,59.7
2018-12-21T02:43:32.174Z,59.7
2018-12-21T02:44:21.256Z,59.7
2018-12-21T02:45:12.176Z,59.7
2018-12-21T02:46:02.000Z,59.7
2018-12-21T02:46:51.995Z,59.6
2018-12-21T02:47:42.033Z,59.6
2018-12-21T02:48:32.620Z,59.6
2018-12-21T02:49:21.621Z,59.6
2018-12-21T02:50:12.320Z,59.6
2018-12-21T02:51:02.307Z,59.6
2018-12-21T02:51:52.767Z,59.6
2018-12-21T02:52:42.512Z,59.6
2018-12-21T02:53:32.176Z,59.6
2018-12-21T02:54:22.551Z,59.6
2018-12-21T02:55:12.588Z,59.6
2018-12-21T02:56:02.617Z,59.6
2018-12-21T02:56:52.963Z,59.6
2018-12-21T02:57:42.471Z,59.6
2018-12-21T02:58:33.052Z,59.6
2018-12-21T02:59:22.861Z,59.6
2018-12-21T03:00:12.896Z,59.5
2018-12-21T03:01:02.847Z,59.5
2018-12-21T03:01:53.548Z,59.5
2018-12-21T03:02:43.062Z,59.5
2018-12-21T03:03:32.577Z,59.5
2018-12-21T03:04:23.465Z,59.5
2018-12-21T03:05:13.825Z,59.5
2018-12-21T03:06:03.164Z,59.4
2018-12-21T03:06:53.070Z,59.4
2018-12-21T03:07:43.699Z,59.4
2018-12-21T03:08:32.889Z,59.4
2018-12-21T03:09:23.804Z,59.4
2018-12-21T03:10:13.634Z,59.4
2018-12-21T03:11:03.447Z,59.4
2018-12-21T03:11:53.687Z,59.4
2018-12-21T03:12:44.074Z,59.4
2018-12-21T03:13:34.076Z,59.4
2018-12-21T03:14:24.381Z,59.4
2018-12-21T03:15:14.161Z,59.4
2018-12-21T03:16:04.382Z,59.4
2018-12-21T03:16:54.301Z,59.4
2018-12-21T03:17:44.103Z,59.3
2018-12-21T03:18:34.401Z,59.3
2018-12-21T03:19:23.661Z,59.3
2018-12-21T03:20:13.971Z,59.3
2018-12-21T03:21:04.435Z,59.3
2018-12-21T03:21:54.101Z,59.3
2018-12-21T03:22:44.826Z,59.3
2018-12-21T03:23:35.081Z,59.3
2018-12-21T03:24:23.735Z,59.3
2018-12-21T03:25:14.383Z,59.3
2018-12-21T03:26:05.037Z,59.3
2018-12-21T03:26:54.991Z,59.3
2018-12-21T03:27:45.032Z,59.3
2018-12-21T03:28:35.122Z,59.2
2018-12-21T03:29:25.165Z,59.3
2018-12-21T03:30:15.244Z,59.2
2018-12-21T03:31:05.236Z,59.2
2018-12-21T03:31:55.167Z,59.2
2018-12-21T03:32:44.974Z,59.2
2018-12-21T03:33:34.954Z,59.2
2018-12-21T03:34:25.613Z,59.2
2018-12-21T03:35:15.355Z,59.1
2018-12-21T03:36:05.454Z,59.2
2018-12-21T03:36:55.385Z,59.1
2018-12-21T03:37:45.587Z,59.1
2018-12-21T03:38:36.273Z,59.1
2018-12-21T03:39:26.096Z,59.1
2018-12-21T03:40:16.348Z,59.1
2018-12-21T03:41:05.951Z,59.1
2018-12-21T03:41:55.729Z,59.1
2018-12-21T03:42:46.052Z,59.1
2018-12-21T03:43:36.115Z,59.1
2018-12-21T03:44:25.895Z,59.1
2018-12-21T03:45:15.386Z,59.1
2018-12-21T03:46:06.003Z,59.1
2018-12-21T03:46:56.340Z,59.1
2018-12-21T03:47:46.139Z,59.1
2018-12-21T03:48:35.917Z,59
2018-12-21T03:49:26.521Z,59
2018-12-21T03:50:16.029Z,59
2018-12-21T03:51:06.612Z,59
2018-12-21T03:51:56.452Z,59
2018-12-21T03:52:46.520Z,59
2018-12-21T03:53:36.246Z,58.9
2018-12-21T03:54:26.017Z,58.9
2018-12-21T03:55:16.817Z,58.9
2018-12-21T03:56:06.944Z,58.9
2018-12-21T03:56:56.177Z,58.9
2018-12-21T03:57:45.981Z,58.9
2018-12-21T03:58:36.603Z,58.9
2018-12-21T03:59:26.896Z,58.9
2018-12-21T04:00:17.396Z,58.9
2018-12-21T04:01:07.043Z,58.9
2018-12-21T04:01:57.432Z,58.9
2018-12-21T04:02:47.464Z,58.9
2018-12-21T04:03:36.655Z,58.9
2018-12-21T04:04:27.541Z,58.9
2018-12-21T04:05:17.566Z,58.9
2018-12-21T04:06:07.644Z,58.9
2018-12-21T04:06:57.726Z,58.8
2018-12-21T04:07:47.223Z,58.8
2018-12-21T04:08:37.372Z,58.8
2018-12-21T04:09:27.685Z,58.8
2018-12-21T04:10:17.675Z,58.8
2018-12-21T04:11:06.970Z,58.8
2018-12-21T04:11:57.825Z,58.8
2018-12-21T04:12:47.611Z,58.8
2018-12-21T04:13:37.614Z,58.8
2018-12-21T04:14:28.240Z,58.8
2018-12-21T04:15:17.983Z,58.8
2018-12-21T04:16:07.828Z,58.8
2018-12-21T04:16:58.169Z,58.8
2018-12-21T04:17:48.583Z,58.8
2018-12-21T04:18:38.550Z,58.8
2018-12-21T04:19:28.586Z,58.8
2018-12-21T04:20:18.082Z,58.7
2018-12-21T04:21:08.452Z,58.7
2018-12-21T04:21:58.445Z,58.7
2018-12-21T04:22:48.228Z,58.7
2018-12-21T04:23:38.295Z,58.7
2018-12-21T04:24:28.867Z,58.7
2018-12-21T04:25:19.704Z,58.7
2018-12-21T04:26:08.485Z,58.6
2018-12-21T04:26:59.313Z,58.6
2018-12-21T04:27:49.162Z,58.6
2018-12-21T04:28:38.472Z,58.6
2018-12-21T04:29:28.972Z,58.6
2018-12-21T04:30:19.346Z,58.6
2018-12-21T04:32:49.512Z,58.6
2018-12-21T04:37:49.788Z,58.5
2018-12-21T04:38:39.064Z,58.5
2018-12-21T04:39:29.415Z,58.5
2018-12-21T04:40:19.524Z,58.5
2018-12-21T04:41:09.752Z,58.5
2018-12-21T04:42:00.076Z,58.5
2018-12-21T04:42:49.601Z,58.5
2018-12-21T04:43:39.649Z,58.4
2018-12-21T04:44:29.996Z,58.5
2018-12-21T05:01:50.516Z,58.3
2018-12-21T05:02:54.514Z,58.3
2018-12-21T05:03:45.402Z,58.3
2018-12-21T05:04:26.909Z,58.3
2018-12-21T05:05:16.894Z,58.3
2018-12-21T05:06:08.340Z,58.3
2018-12-21T05:06:58.058Z,58.3
2018-12-21T05:07:47.389Z,58.3
2018-12-21T05:08:37.422Z,58.3
2018-12-21T09:16:17.672Z,55.6
2018-12-21T09:17:07.286Z,55.6
2018-12-21T09:17:57.346Z,55.6
2018-12-21T09:18:47.955Z,55.6
2018-12-21T09:19:37.718Z,55.6
2018-12-21T09:20:26.964Z,55.6
2018-12-21T09:21:18.459Z,55.6
2018-12-21T09:22:08.196Z,55.5
2018-12-21T09:22:57.656Z,55.5
2018-12-21T09:23:48.256Z,55.5
2018-12-21T09:24:38.331Z,55.5
2018-12-21T09:25:28.101Z,55.5
2018-12-21T09:26:18.443Z,55.5
2018-12-21T09:27:08.493Z,55.4
2018-12-21T09:27:58.265Z,55.5
2018-12-21T09:28:47.770Z,55.4
2018-12-21T09:29:38.383Z,55.4
2018-12-21T09:30:28.720Z,55.4
2018-12-21T09:31:18.273Z,55.4
2018-12-21T09:32:08.843Z,55.4
2018-12-21T09:32:58.052Z,55.4
2018-12-21T09:33:48.950Z,55.4
2018-12-21T09:34:38.722Z,55.4
2018-12-21T09:35:28.785Z,55.4
2018-12-21T09:36:18.560Z,55.4
2018-12-21T09:37:09.723Z,55.4
2018-12-21T09:37:58.957Z,55.4
2018-12-21T09:38:49.012Z,55.3
2018-12-21T09:39:39.044Z,55.3
2018-12-21T09:40:29.500Z,55.3
2018-12-21T09:41:19.456Z,55.3
2018-12-21T09:42:09.489Z,55.3
2018-12-21T09:42:58.734Z,55.3
2018-12-21T09:43:49.382Z,55.3
2018-12-21T09:44:39.119Z,55.3
2018-12-21T09:45:29.454Z,55.3
2018-12-21T09:46:19.516Z,55.3
2018-12-21T09:47:09.897Z,55.3
2018-12-21T09:47:59.344Z,55.3
2018-12-21T09:48:49.690Z,55.3
2018-12-21T09:49:40.023Z,55.2
2018-12-21T09:50:30.397Z,55.2
2018-12-21T09:51:19.571Z,55.2
2018-12-21T09:52:10.186Z,55.2
2018-12-21T09:52:59.707Z,55.2
2018-12-21T09:53:49.474Z,55.2
2018-12-21T09:54:40.352Z,55.2
2018-12-21T09:55:30.432Z,55.2
2018-12-21T09:56:19.631Z,55.1
2018-12-21T09:57:10.009Z,55.1
2018-12-21T09:58:00.361Z,55.1
2018-12-21T09:58:50.651Z,55.1
2018-12-21T09:59:39.851Z,55.1
2018-12-21T10:00:29.915Z,55.1
2018-12-21T10:01:20.528Z,55.1
2018-12-21T10:02:10.541Z,55.1
2018-12-21T10:03:00.084Z,55.1
2018-12-21T10:03:50.690Z,55.1
2018-12-21T10:04:40.003Z,55.1
2018-12-21T10:05:30.324Z,55
2018-12-21T10:06:21.223Z,55.1
2018-12-21T10:07:10.918Z,55.1
2018-12-21T10:08:00.218Z,55
2018-12-21T10:08:50.813Z,55
2018-12-21T10:09:41.367Z,55
2018-12-21T10:10:31.425Z,55
2018-12-21T10:11:21.284Z,55
2018-12-21T10:12:10.412Z,54.9
2018-12-21T10:13:01.050Z,55
2018-12-21T10:13:51.773Z,54.9
2018-12-21T10:14:41.422Z,54.9
2018-12-21T10:15:31.595Z,54.9
2018-12-21T10:16:21.818Z,54.9
2018-12-21T10:17:11.697Z,54.9
2018-12-21T10:18:02.220Z,54.9
2018-12-21T10:18:51.442Z,54.9
2018-12-21T10:19:41.752Z,54.9
2018-12-21T10:20:32.084Z,54.9
2018-12-21T10:21:21.867Z,54.9
2018-12-21T10:22:11.918Z,54.9
2018-12-21T10:23:02.509Z,54.9
2018-12-21T10:23:52.052Z,54.9
2018-12-21T10:24:42.103Z,54.8
2018-12-21T10:25:32.429Z,54.8
2018-12-21T10:26:22.328Z,54.8
2018-12-21T10:27:12.264Z,54.8
2018-12-21T10:28:02.361Z,54.8
2018-12-21T10:28:52.369Z,54.8
2018-12-21T10:29:42.432Z,54.8
2018-12-21T10:30:32.048Z,54.8
2018-12-21T10:31:22.261Z,54.8
2018-12-21T10:32:12.856Z,54.8
2018-12-21T10:33:02.653Z,54.8
2018-12-21T10:33:52.966Z,54.8
2018-12-21T10:34:43.084Z,54.7
2018-12-21T10:35:32.813Z,54.7
2018-12-21T10:36:22.708Z,54.7
2018-12-21T10:37:12.940Z,54.7
2018-12-21T10:38:02.986Z,54.7
2018-12-21T10:38:53.380Z,54.7
2018-12-21T10:39:43.123Z,54.7
2018-12-21T10:40:33.163Z,54.7
2018-12-21T10:41:23.573Z,54.7
2018-12-21T10:42:13.550Z,54.6
2018-12-21T10:43:03.342Z,54.6
2018-12-21T10:43:53.654Z,54.6
2018-12-21T10:44:43.759Z,54.6
2018-12-21T10:45:42.489Z,54.6
2018-12-21T10:46:23.551Z,54.6
2018-12-21T10:47:13.604Z,54.6
2018-12-21T10:48:03.839Z,54.6
2018-12-21T10:48:53.486Z,54.6
2018-12-21T10:49:44.078Z,54.6
2018-12-21T10:50:34.103Z,54.6
2018-12-21T10:51:23.611Z,54.5
2018-12-21T10:52:13.661Z,54.5
2018-12-21T10:53:03.555Z,54.5
2018-12-21T10:53:54.061Z,54.5
2018-12-21T10:54:44.408Z,54.5
2018-12-21T10:55:33.920Z,54.5
2018-12-21T10:56:24.228Z,54.5
2018-12-21T10:57:13.995Z,54.4
2018-12-21T10:58:04.585Z,54.5
2018-12-21T10:58:54.665Z,54.4
2018-12-21T10:59:47.200Z,54.4
2018-12-21T11:00:34.773Z,54.4
2018-12-21T11:01:24.573Z,54.4
2018-12-21T11:02:14.418Z,54.4
2018-12-21T11:03:04.392Z,54.4
2018-12-21T11:03:54.443Z,54.4
2018-12-21T11:04:44.507Z,54.4
2018-12-21T11:05:35.117Z,54.4
2018-12-21T11:06:24.896Z,54.4
2018-12-21T11:07:14.953Z,54.4
2018-12-21T11:08:05.013Z,54.4
2018-12-21T11:08:55.062Z,54.3
2018-12-21T11:09:45.387Z,54.3
2018-12-21T11:10:35.490Z,54.3
2018-12-21T11:11:25.222Z,54.3
2018-12-21T11:12:15.569Z,54.3
2018-12-21T11:13:05.342Z,54.3
2018-12-21T11:13:55.383Z,54.3
2018-12-21T11:14:45.445Z,54.3
2018-12-21T11:15:35.786Z,54.3
2018-12-21T11:16:25.279Z,54.3
2018-12-21T11:17:15.134Z,54.3
2018-12-21T11:18:05.133Z,54.3
2018-12-21T11:18:54.704Z,54.3
2018-12-21T11:19:45.518Z,54.3
2018-12-21T11:20:36.126Z,54.2
2018-12-21T11:21:26.211Z,54.2
2018-12-21T11:22:15.955Z,54.2
2018-12-21T11:23:06.031Z,54.2
2018-12-21T11:23:56.069Z,54.2
2018-12-21T11:24:46.121Z,54.2
2018-12-21T11:25:36.453Z,54.1
2018-12-21T11:26:26.509Z,54.1
2018-12-21T11:27:16.581Z,54.1
2018-12-21T11:28:06.356Z,54.1
2018-12-21T11:28:56.397Z,54.1
2018-12-21T11:29:46.738Z,54.1
2018-12-21T11:30:36.291Z,54.1
2018-12-21T11:31:26.298Z,54.1
2018-12-21T11:32:16.068Z,54.1
2018-12-21T11:33:06.983Z,54.1
2018-12-21T11:33:57.075Z,54.1
2018-12-21T11:34:46.523Z,54.1
2018-12-21T11:35:36.868Z,54.1
2018-12-21T11:36:26.911Z,54
2018-12-21T11:37:16.991Z,54.1
2018-12-21T11:38:07.042Z,54
2018-12-21T11:38:57.323Z,54
2018-12-21T11:39:47.415Z,54
2018-12-21T11:40:37.208Z,54
2018-12-21T11:41:27.653Z,54
2018-12-21T11:42:17.581Z,54
2018-12-21T11:43:07.647Z,53.9
2018-12-21T11:43:57.219Z,53.9
2018-12-21T11:44:47.743Z,53.9
2018-12-21T11:45:37.816Z,53.9
2018-12-21T11:46:27.578Z,53.9
2018-12-21T11:47:17.923Z,53.9
2018-12-21T11:48:07.142Z,53.9
2018-12-21T11:48:58.363Z,53.9
2018-12-21T11:49:48.118Z,53.9
2018-12-21T11:50:38.253Z,53.9
2018-12-21T11:51:27.708Z,53.9
2018-12-21T11:52:17.977Z,53.9
2018-12-21T11:53:08.045Z,53.8
2018-12-21T11:53:58.345Z,53.8
2018-12-21T11:54:48.182Z,53.8
2018-12-21T11:55:37.930Z,53.8
2018-12-21T11:56:28.802Z,53.8
2018-12-21T11:57:18.443Z,53.8
2018-12-21T11:58:08.372Z,53.8
2018-12-21T11:58:57.886Z,53.8
2018-12-21T11:59:48.577Z,53.8
2018-12-21T12:00:39.085Z,53.8
2018-12-21T12:01:28.090Z,53.8
2018-12-21T12:02:23.547Z,53.8
2018-12-21T12:03:08.445Z,53.8
2018-12-21T12:03:58.772Z,53.8
2018-12-21T12:04:48.826Z,53.7
2018-12-21T12:05:38.891Z,53.7
2018-12-21T12:06:28.949Z,53.7
2018-12-21T12:07:19.111Z,53.7
2018-12-21T12:08:09.069Z,53.7
2018-12-21T12:09:07.896Z,53.6
2018-12-21T12:09:49.438Z,53.7
2018-12-21T12:10:39.819Z,53.6
2018-12-21T12:11:29.564Z,53.6
2018-12-21T12:12:19.341Z,53.6
2018-12-21T12:13:09.116Z,53.6
2018-12-21T12:13:58.621Z,53.6
2018-12-21T12:14:49.781Z,53.6
2018-12-21T12:15:39.848Z,53.6
2018-12-21T12:16:29.625Z,53.6
2018-12-21T12:17:19.946Z,53.6
2018-12-21T12:18:09.281Z,53.6
2018-12-21T12:18:59.228Z,53.6
2018-12-21T12:19:49.830Z,53.6
2018-12-21T12:20:40.173Z,53.6
2018-12-21T12:21:30.250Z,53.5
2018-12-21T12:22:20.005Z,53.5
2018-12-21T12:23:10.072Z,53.5
2018-12-21T12:24:00.398Z,53.5
2018-12-21T12:24:58.830Z,53.5
2018-12-21T12:25:39.956Z,53.5
2018-12-21T12:26:30.535Z,53.4
2018-12-21T12:27:20.183Z,53.4
2018-12-21T12:28:10.717Z,53.4
2018-12-21T12:29:00.210Z,53.4
2018-12-21T12:29:50.247Z,53.4
2018-12-21T12:30:40.850Z,53.4
2018-12-21T12:31:30.340Z,53.4
2018-12-21T12:32:20.968Z,53.4
2018-12-21T12:33:10.735Z,53.4
2018-12-21T12:34:00.623Z,53.4
2018-12-21T12:34:50.860Z,53.4
2018-12-21T12:35:41.181Z,53.4
2018-12-21T12:36:30.787Z,53.4
2018-12-21T12:37:20.450Z,53.3
2018-12-21T12:38:11.127Z,53.3
2018-12-21T12:39:01.143Z,53.3
2018-12-21T12:39:50.714Z,53.3
2018-12-21T12:40:40.769Z,53.3
2018-12-21T12:41:31.576Z,53.3
2018-12-21T12:42:20.883Z,53.3
2018-12-21T12:43:10.989Z,53.3
2018-12-21T12:44:00.916Z,53.3
2018-12-21T12:44:50.772Z,53.3
2018-12-21T12:45:41.109Z,53.3
2018-12-21T12:46:31.349Z,53.3
2018-12-21T12:47:21.384Z,53.3
2018-12-21T12:48:11.874Z,53.2
2018-12-21T12:49:01.589Z,53.2
2018-12-21T12:49:51.860Z,53.2
2018-12-21T12:50:42.197Z,53.2
2018-12-21T12:51:31.990Z,53.2
2018-12-21T12:52:22.619Z,53.2
2018-12-21T12:53:12.106Z,53.2
2018-12-21T12:54:02.389Z,53.1
2018-12-21T12:54:52.481Z,53.1
2018-12-21T12:55:42.267Z,53.1
2018-12-21T12:56:32.670Z,53.1
2018-12-21T12:57:22.384Z,53.1
2018-12-21T12:58:12.516Z,53.1
2018-12-21T12:59:02.764Z,53.1
2018-12-21T12:59:52.276Z,53.1
2018-12-21T13:00:42.944Z,53.1
2018-12-21T13:01:32.385Z,53.1
2018-12-21T13:02:22.708Z,53.1
2018-12-21T13:03:11.990Z,53.1
2018-12-21T13:04:02.839Z,53.1
2018-12-21T13:04:53.408Z,53.1
2018-12-21T13:05:42.940Z,53
2018-12-21T13:06:33.276Z,53
2018-12-21T13:07:23.045Z,53
2018-12-21T13:08:12.570Z,53
2018-12-21T13:09:03.180Z,53
2018-12-21T13:09:53.730Z,53
2018-12-21T13:10:43.548Z,52.9
2018-12-21T13:11:33.075Z,52.9
2018-12-21T13:12:23.490Z,52.9
2018-12-21T13:13:13.727Z,52.9
2018-12-21T13:14:03.228Z,52.9
2018-12-21T13:14:53.276Z,52.9
2018-12-21T13:15:43.906Z,52.9
2018-12-21T13:16:34.110Z,52.9
2018-12-21T13:17:23.728Z,52.9
2018-12-21T13:18:13.793Z,52.9
2018-12-21T13:19:03.610Z,52.9
2018-12-21T13:19:53.630Z,52.9
2018-12-21T13:20:43.952Z,52.9
2018-12-21T13:21:34.002Z,52.9
2018-12-21T13:22:23.780Z,52.9
2018-12-21T13:23:14.239Z,52.8
2018-12-21T13:24:04.169Z,52.8
2018-12-21T13:24:54.252Z,52.8
2018-12-21T13:25:44.275Z,52.8
2018-12-21T13:26:34.069Z,52.8
2018-12-21T13:27:24.797Z,52.8
2018-12-21T13:28:13.900Z,52.8
2018-12-21T13:29:04.467Z,52.8
2018-12-21T13:29:54.847Z,52.8
2018-12-21T13:30:44.634Z,52.8
2018-12-21T13:31:34.404Z,52.8
2018-12-21T13:32:24.744Z,52.8
2018-12-21T13:33:14.807Z,52.8
2018-12-21T13:34:05.140Z,52.7
2018-12-21T13:34:54.886Z,52.7
2018-12-21T13:35:45.284Z,52.7
2018-12-21T13:36:37.182Z,52.7
2018-12-21T13:37:25.341Z,52.6
2018-12-21T13:38:15.401Z,52.7
2018-12-21T13:39:05.485Z,52.6
2018-12-21T13:39:55.304Z,52.6
2018-12-21T13:40:45.817Z,52.6
2018-12-21T13:41:35.361Z,52.6
2018-12-21T13:42:27.859Z,52.6
2018-12-21T13:43:15.461Z,52.6
2018-12-21T13:44:05.799Z,52.6
2018-12-21T13:44:55.316Z,52.6
2018-12-21T13:45:45.876Z,52.6
2018-12-21T13:46:35.694Z,52.6
2018-12-21T13:47:25.748Z,52.6
2018-12-21T13:48:15.789Z,52.6
2018-12-21T13:49:06.376Z,52.6
2018-12-21T13:49:56.028Z,52.6
2018-12-21T13:50:46.211Z,52.5
2018-12-21T13:51:35.478Z,52.5
2018-12-21T13:52:26.369Z,52.5
2018-12-21T13:53:16.131Z,52.5
2018-12-21T13:54:06.493Z,52.5
2018-12-21T13:54:56.236Z,52.5
2018-12-21T13:55:46.663Z,52.5
2018-12-21T13:56:36.088Z,52.5
2018-12-21T13:57:26.698Z,52.5
2018-12-21T13:58:16.281Z,52.4
2018-12-21T14:15:06.461Z,52.3
2018-12-21T14:15:56.217Z,52.3
2018-12-21T14:16:46.269Z,52.3
2018-12-21T14:17:36.051Z,52.3
2018-12-21T14:18:26.726Z,52.3
2018-12-21T14:19:16.441Z,52.3
2018-12-21T14:20:06.501Z,52.3
2018-12-21T14:20:56.529Z,52.2
2018-12-21T14:21:46.316Z,52.2
2018-12-21T14:22:36.378Z,52.2
2018-12-21T14:23:26.438Z,52.2
2018-12-21T14:24:16.491Z,52.2
2018-12-21T14:25:07.133Z,52.2
2018-12-21T14:25:56.881Z,52.2
2018-12-21T14:26:47.184Z,52.2
2018-12-21T14:27:36.716Z,52.1
2018-12-21T14:28:27.148Z,52.1
2018-12-21T14:29:17.686Z,52.1
2018-12-21T14:30:06.883Z,52.1
2018-12-21T14:30:57.493Z,52.1
2018-12-21T14:31:47.276Z,52.1
2018-12-21T14:32:37.454Z,52.1
2018-12-21T14:33:27.108Z,52.1
2018-12-21T14:34:17.721Z,52.1
2018-12-21T14:35:06.936Z,52.1
2018-12-21T14:35:57.300Z,52.1
2018-12-21T14:36:47.616Z,52.1
2018-12-21T14:37:37.941Z,52.1
2018-12-21T14:38:27.450Z,52.1
2018-12-21T14:39:17.780Z,52
2018-12-21T14:40:08.363Z,52.1
2018-12-21T14:40:57.612Z,52
2018-12-21T14:41:47.963Z,52
2018-12-21T14:42:38.005Z,52
2018-12-21T14:43:28.335Z,52
2018-12-21T14:44:18.117Z,52
2018-12-21T14:46:47.730Z,52
2018-12-21T14:51:48.902Z,51.9
2018-12-21T14:53:28.795Z,51.9
2018-12-21T14:54:18.522Z,51.9
2018-12-21T14:55:08.562Z,51.9
2018-12-21T14:55:58.400Z,51.9
2018-12-21T14:56:48.704Z,51.8
2018-12-21T14:57:38.569Z,51.9
2018-12-21T14:58:28.802Z,51.8
2018-12-21T14:59:20.754Z,51.8
2018-12-21T15:00:10.174Z,51.8
2018-12-21T15:01:01.522Z,51.8
2018-12-21T15:01:51.357Z,51.8
2018-12-21T15:02:39.436Z,51.8
2018-12-21T15:03:29.598Z,51.8
2018-12-21T15:04:20.238Z,51.8
2018-12-21T15:05:10.044Z,51.8
2018-12-21T15:05:59.395Z,51.8
2018-12-21T15:06:49.914Z,51.8
2018-12-21T15:07:39.433Z,51.8
2018-12-21T15:08:29.766Z,51.8
2018-12-21T15:09:20.351Z,51.8
2018-12-21T15:10:10.151Z,51.8
2018-12-21T15:10:59.911Z,51.7
2018-12-21T15:11:49.968Z,51.7
2018-12-21T15:12:40.313Z,51.7
2018-12-21T15:13:30.099Z,51.7
2018-12-21T15:14:20.438Z,51.7
2018-12-21T15:15:10.529Z,51.7
2018-12-21T15:16:00.631Z,51.7
2018-12-21T15:16:50.581Z,51.7
2018-12-21T15:17:40.648Z,51.6
2018-12-21T15:18:30.138Z,51.6
2018-12-21T15:19:20.743Z,51.6
2018-12-21T15:20:10.632Z,51.6
2018-12-21T15:21:00.640Z,51.6
2018-12-21T15:21:50.888Z,51.6
2018-12-21T15:22:40.791Z,51.6
2018-12-21T15:23:30.856Z,51.6
2018-12-21T15:24:20.008Z,51.6
2018-12-21T15:25:10.908Z,51.6
2018-12-21T15:26:01.202Z,51.6
2018-12-21T15:26:50.688Z,51.6
2018-12-21T15:27:41.028Z,51.6
2018-12-21T15:28:30.812Z,51.6
2018-12-21T15:29:20.606Z,51.5
2018-12-21T15:30:11.595Z,51.5
2018-12-21T15:31:00.960Z,51.5
2018-12-21T15:31:51.322Z,51.5
2018-12-21T15:32:41.387Z,51.5
2018-12-21T15:33:31.431Z,51.5
2018-12-21T15:34:21.470Z,51.5
2018-12-21T15:35:11.545Z,51.4
2018-12-21T15:36:00.755Z,51.4
2018-12-21T15:36:51.648Z,51.4
2018-12-21T15:37:41.433Z,51.4
2018-12-21T15:38:31.850Z,51.4
2018-12-21T15:39:22.105Z,51.4
2018-12-21T15:40:11.660Z,51.4
2018-12-21T15:41:02.214Z,51.4
2018-12-21T15:41:52.257Z,51.4
2018-12-21T15:42:41.475Z,51.4
2018-12-21T15:43:32.093Z,51.4
2018-12-21T15:44:22.172Z,51.4
2018-12-21T15:45:12.209Z,51.4
2018-12-21T15:46:02.113Z,51.4
2018-12-21T15:46:52.045Z,51.4
2018-12-21T15:47:42.409Z,51.4
2018-12-21T15:48:32.470Z,51.3
2018-12-21T15:49:22.497Z,51.3
2018-12-21T15:50:12.574Z,51.3
2018-12-21T15:51:02.412Z,51.3
2018-12-21T15:51:52.861Z,51.3
2018-12-21T15:52:42.530Z,51.3
2018-12-21T15:53:32.009Z,51.3
2018-12-21T15:54:22.724Z,51.3
2018-12-21T15:55:12.751Z,51.3
2018-12-21T15:56:03.193Z,51.3
2018-12-21T15:56:53.004Z,51.3
2018-12-21T15:57:42.301Z,51.3
2018-12-21T15:58:32.637Z,51.3
2018-12-21T15:59:22.618Z,51.3
2018-12-21T16:00:13.241Z,51.2
2018-12-21T16:01:03.658Z,51.2
2018-12-21T16:01:53.606Z,51.2
2018-12-21T16:02:42.843Z,51.2
2018-12-21T16:03:33.696Z,51.2
2018-12-21T16:04:22.957Z,51.2
2018-12-21T16:05:13.836Z,51.2
2018-12-21T16:06:03.614Z,51.1
2018-12-21T16:06:53.976Z,51.1
2018-12-21T16:07:44.265Z,51.1
2018-12-21T16:08:34.079Z,51.1
2018-12-21T16:09:23.864Z,51.1
2018-12-21T16:10:13.891Z,51.1
2018-12-21T16:11:04.251Z,51.1
2018-12-21T16:11:54.586Z,51.1
2018-12-21T16:12:44.190Z,51.1
2018-12-21T16:13:33.841Z,51.1
2018-12-21T16:14:24.175Z,51.1
2018-12-21T16:15:14.053Z,51.1
2018-12-21T16:16:04.288Z,51.1
2018-12-21T16:16:54.040Z,51.1
2018-12-21T16:17:44.423Z,51.1
2018-12-21T16:18:34.198Z,51
2018-12-21T16:19:23.978Z,51
2018-12-21T16:20:14.181Z,51
2018-12-21T16:21:04.908Z,51
2018-12-21T16:21:54.160Z,51
2018-12-21T16:22:45.945Z,51
2018-12-21T16:23:35.198Z,51
2018-12-21T16:24:24.590Z,51
2018-12-21T16:25:15.206Z,50.9
2018-12-21T16:26:07.400Z,50.9
2018-12-21T16:26:55.535Z,50.9
2018-12-21T16:27:44.622Z,50.9
2018-12-21T16:28:35.200Z,50.9
2018-12-21T16:29:25.204Z,50.9
2018-12-21T16:30:15.545Z,50.9
2018-12-21T16:31:05.583Z,50.9
2018-12-21T16:31:55.241Z,50.9